Time;durP1;ratioP1;P1;durP2;ratioP2;P2;SDS_P1;SDS_P2;PMS_P1;PMS_P2;Temp;Humidity;BMP_temperature;BMP_pressure;BME280_temperature;BME280_humidity;BME280_pressure;Samples;Min_cycle;Max_cycle;Signal;HPM_P1;HPM_P2
2023/05/30 00:02:13;;;;;;;;;;;20.20;42.20;;;;;;5109951;28;19942;-59
2023/05/30 00:04:40;;;;;;;;;;;20.20;42.20;;;;;;5103987;28;19976;-58
2023/05/30 00:07:07;;;;;;;;;;;20.20;42.20;;;;;;5111246;28;19920;-59
2023/05/30 00:09:34;;;;;;;;;;;20.20;42.20;;;;;;5109829;28;19920;-57
2023/05/30 00:12:01;;;;;;;;;;;20.20;42.20;;;;;;5088947;28;19920;-59
2023/05/30 00:14:28;;;;;;;;;;;20.20;42.20;;;;;;5090605;28;19973;-59
2023/05/30 00:16:58;;;;;;;;;;;20.20;42.20;;;;;;5092049;28;19970;-58
2023/05/30 00:19:24;;;;;;;;;;;20.20;42.20;;;;;;5093784;28;19926;-59
2023/05/30 00:21:52;;;;;;;;;;;20.20;42.20;;;;;;5091679;28;19969;-58
2023/05/30 00:24:19;;;;;;;;;;;20.20;42.20;;;;;;5092213;28;19920;-59
2023/05/30 00:26:45;;;;;;;;;;;20.20;42.20;;;;;;5094841;28;19973;-59
2023/05/30 00:29:12;;;;;;;;;;;20.10;42.20;;;;;;5094075;28;19924;-58
2023/05/30 00:31:39;;;;;;;;;;;20.10;42.20;;;;;;5093633;28;20358;-58
2023/05/30 00:34:07;;;;;;;;;;;20.10;42.20;;;;;;5108448;28;19923;-58
2023/05/30 00:36:35;;;;;;;;;;;20.10;42.20;;;;;;5094843;28;19920;-58
2023/05/30 00:39:01;;;;;;;;;;;20.10;42.10;;;;;;5111872;28;19943;-58
2023/05/30 00:41:28;;;;;;;;;;;20.10;42.10;;;;;;5092232;28;19920;-58
2023/05/30 00:43:55;;;;;;;;;;;20.10;42.10;;;;;;5093870;28;19920;-58
2023/05/30 00:46:23;;;;;;;;;;;20.10;42.10;;;;;;5109018;28;19950;-58
2023/05/30 00:48:50;;;;;;;;;;;20.20;42.20;;;;;;5110589;28;19920;-58
2023/05/30 00:51:19;;;;;;;;;;;20.10;42.10;;;;;;5109006;28;19920;-59
2023/05/30 00:53:45;;;;;;;;;;;20.10;42.10;;;;;;5093329;28;19962;-58
2023/05/30 00:56:13;;;;;;;;;;;20.10;42.00;;;;;;5110513;28;19920;-59
2023/05/30 00:58:40;;;;;;;;;;;20.10;42.10;;;;;;5094640;28;20011;-58
2023/05/30 01:01:07;;;;;;;;;;;20.10;42.10;;;;;;5110650;28;19927;-59
2023/05/30 01:03:34;;;;;;;;;;;20.10;42.10;;;;;;5091777;28;19920;-58
2023/05/30 01:06:01;;;;;;;;;;;20.10;42.10;;;;;;5107061;28;19924;-58
2023/05/30 01:08:29;;;;;;;;;;;20.10;42.10;;;;;;5089816;28;19920;-58
2023/05/30 01:11:11;;;;;;;;;;;20.10;42.10;;;;;;5090298;28;20306;-58
2023/05/30 01:13:39;;;;;;;;;;;20.10;42.10;;;;;;5090392;28;19920;-58
2023/05/30 01:16:07;;;;;;;;;;;20.10;42.10;;;;;;5106275;28;19920;-58
2023/05/30 01:18:35;;;;;;;;;;;20.10;42.10;;;;;;5109206;28;19923;-59
2023/05/30 01:21:04;;;;;;;;;;;20.10;42.00;;;;;;5094416;28;20018;-59
2023/05/30 01:23:45;;;;;;;;;;;20.10;42.00;;;;;;5093222;28;19920;-59
2023/05/30 01:26:19;;;;;;;;;;;20.10;42.00;;;;;;5085725;28;19920;-58
2023/05/30 01:28:48;;;;;;;;;;;20.10;42.00;;;;;;5092374;28;19926;-58
2023/05/30 01:31:14;;;;;;;;;;;20.10;41.90;;;;;;5093500;28;19973;-58
2023/05/30 01:33:41;;;;;;;;;;;20.10;42.00;;;;;;5108376;28;19924;-58
2023/05/30 01:36:08;;;;;;;;;;;20.10;41.90;;;;;;5108238;28;19970;-58
2023/05/30 01:38:37;;;;;;;;;;;20.10;41.90;;;;;;5110586;28;19924;-58
2023/05/30 01:41:05;;;;;;;;;;;20.10;42.00;;;;;;5109803;28;19920;-58
2023/05/30 01:43:36;;;;;;;;;;;20.10;41.90;;;;;;5109656;28;19924;-58
2023/05/30 01:46:06;;;;;;;;;;;20.10;41.90;;;;;;5109499;28;19927;-58
2023/05/30 01:48:34;;;;;;;;;;;20.10;41.90;;;;;;5094056;28;19965;-58
2023/05/30 01:51:01;;;;;;;;;;;20.10;41.90;;;;;;5110211;28;20012;-58
2023/05/30 01:53:31;;;;;;;;;;;20.10;41.90;;;;;;5110223;28;19928;-58
2023/05/30 01:55:58;;;;;;;;;;;20.10;42.00;;;;;;5107951;28;20454;-59
2023/05/30 01:58:25;;;;;;;;;;;20.10;42.00;;;;;;5092359;28;19920;-59
2023/05/30 02:00:52;;;;;;;;;;;20.10;42.00;;;;;;5092474;28;19924;-59
2023/05/30 02:03:21;;;;;;;;;;;20.10;42.00;;;;;;5092806;28;19920;-59
2023/05/30 02:05:47;;;;;;;;;;;20.10;42.00;;;;;;5092435;28;19920;-59
2023/05/30 02:08:14;;;;;;;;;;;20.00;41.90;;;;;;5109719;28;19927;-59
2023/05/30 02:10:41;;;;;;;;;;;20.00;42.50;;;;;;5093808;28;19978;-59
2023/05/30 02:13:08;;;;;;;;;;;20.00;41.90;;;;;;5109412;28;19927;-59
2023/05/30 02:15:35;;;;;;;;;;;20.00;41.90;;;;;;5107616;28;19974;-59
2023/05/30 02:18:02;;;;;;;;;;;20.00;41.90;;;;;;5093861;28;19924;-59
2023/05/30 02:20:30;;;;;;;;;;;20.00;41.90;;;;;;5092186;28;19956;-59
2023/05/30 02:22:57;;;;;;;;;;;20.00;41.90;;;;;;5096240;28;20313;-59
2023/05/30 02:25:25;;;;;;;;;;;20.00;41.90;;;;;;5096887;28;19935;-59
2023/05/30 02:27:51;;;;;;;;;;;20.00;41.90;;;;;;5095602;28;19997;-58
2023/05/30 02:30:19;;;;;;;;;;;20.00;41.90;;;;;;5113714;28;19920;-59
2023/05/30 02:32:45;;;;;;;;;;;20.00;41.90;;;;;;5111548;28;19920;-59
2023/05/30 02:35:12;;;;;;;;;;;20.00;41.90;;;;;;5096258;28;19973;-59
2023/05/30 02:37:40;;;;;;;;;;;20.00;41.90;;;;;;5113182;28;19991;-59
2023/05/30 02:40:09;;;;;;;;;;;20.00;41.90;;;;;;5111342;28;19955;-59
2023/05/30 02:42:36;;;;;;;;;;;20.00;41.90;;;;;;5097432;28;20015;-60
2023/05/30 02:45:03;;;;;;;;;;;20.00;41.90;;;;;;5096304;28;19974;-56
2023/05/30 02:47:30;;;;;;;;;;;20.00;41.90;;;;;;5096077;28;19942;-58
2023/05/30 02:49:56;;;;;;;;;;;20.00;41.90;;;;;;5095133;28;19927;-58
2023/05/30 02:52:23;;;;;;;;;;;20.00;41.90;;;;;;5113522;28;19963;-59
2023/05/30 02:54:51;;;;;;;;;;;20.00;41.90;;;;;;5097658;28;19924;-58
2023/05/30 02:57:19;;;;;;;;;;;20.00;41.90;;;;;;5095312;28;19960;-58
2023/05/30 02:59:46;;;;;;;;;;;20.00;41.90;;;;;;5095938;28;19924;-59
2023/05/30 03:02:12;;;;;;;;;;;20.00;41.90;;;;;;5112724;28;19977;-58
2023/05/30 03:04:39;;;;;;;;;;;20.00;41.90;;;;;;5094149;28;19920;-59
2023/05/30 03:07:07;;;;;;;;;;;20.00;41.90;;;;;;5110873;28;19924;-58
2023/05/30 03:09:34;;;;;;;;;;;20.00;41.90;;;;;;5097164;28;19920;-59
2023/05/30 03:12:04;;;;;;;;;;;20.00;41.90;;;;;;5096946;28;19981;-59
2023/05/30 03:14:32;;;;;;;;;;;20.00;41.90;;;;;;5096823;28;19920;-58
2023/05/30 03:16:58;;;;;;;;;;;20.00;41.90;;;;;;5110705;28;19920;-59
2023/05/30 03:19:25;;;;;;;;;;;20.00;41.90;;;;;;5094460;28;20016;-59
2023/05/30 03:21:52;;;;;;;;;;;20.00;41.90;;;;;;5096632;28;19920;-59
2023/05/30 03:24:18;;;;;;;;;;;20.00;41.90;;;;;;5093504;28;20263;-59
2023/05/30 03:26:45;;;;;;;;;;;20.00;41.90;;;;;;5110602;28;19924;-59
2023/05/30 03:29:13;;;;;;;;;;;20.00;41.90;;;;;;5091752;28;19920;-58
2023/05/30 03:31:40;;;;;;;;;;;20.00;41.90;;;;;;5092903;28;19927;-58
2023/05/30 03:34:07;;;;;;;;;;;20.00;41.90;;;;;;5091569;28;19920;-58
2023/05/30 03:36:35;;;;;;;;;;;20.00;41.90;;;;;;5084914;28;20019;-58
2023/05/30 03:39:02;;;;;;;;;;;20.00;41.90;;;;;;5108709;28;20263;-59
2023/05/30 03:41:29;;;;;;;;;;;20.00;42.50;;;;;;5090961;28;19920;-59
2023/05/30 03:43:55;;;;;;;;;;;20.00;41.90;;;;;;5092069;28;19969;-59
2023/05/30 03:46:23;;;;;;;;;;;19.90;41.80;;;;;;5092080;28;19927;-58
2023/05/30 03:48:50;;;;;;;;;;;20.00;41.90;;;;;;5091029;28;19920;-58
2023/05/30 03:51:17;;;;;;;;;;;20.00;41.90;;;;;;5091666;28;20385;-58
2023/05/30 03:53:44;;;;;;;;;;;19.90;41.90;;;;;;5094348;28;20354;-58
2023/05/30 03:56:11;;;;;;;;;;;19.90;41.90;;;;;;5095048;28;19973;-58
2023/05/30 03:58:38;;;;;;;;;;;19.90;41.90;;;;;;5108519;28;19920;-58
2023/05/30 04:01:04;;;;;;;;;;;19.90;41.90;;;;;;5108837;28;19920;-58
2023/05/30 04:03:32;;;;;;;;;;;19.90;41.90;;;;;;5084159;28;19920;-56
2023/05/30 04:05:59;;;;;;;;;;;19.90;41.90;;;;;;5090790;28;19964;-57
2023/05/30 04:08:26;;;;;;;;;;;19.90;42.00;;;;;;5092765;28;20014;-58
2023/05/30 04:10:53;;;;;;;;;;;19.90;41.90;;;;;;5109004;28;20014;-58
2023/05/30 04:13:20;;;;;;;;;;;19.90;42.00;;;;;;5091152;28;19920;-57
2023/05/30 04:15:46;;;;;;;;;;;19.90;42.00;;;;;;5111163;28;19973;-58
2023/05/30 04:18:13;;;;;;;;;;;19.90;42.00;;;;;;5106532;28;19924;-58
2023/05/30 04:20:41;;;;;;;;;;;19.80;42.00;;;;;;5092982;28;19924;-58
2023/05/30 04:23:08;;;;;;;;;;;19.80;42.10;;;;;;5095687;28;20274;-58
2023/05/30 04:25:35;;;;;;;;;;;19.80;42.00;;;;;;5095291;28;19949;-58
2023/05/30 04:28:05;;;;;;;;;;;19.80;42.00;;;;;;5094934;28;19920;-58
2023/05/30 04:30:32;;;;;;;;;;;19.80;42.00;;;;;;5093642;28;19920;-59
2023/05/30 04:32:59;;;;;;;;;;;19.80;42.10;;;;;;5111020;28;19923;-58
2023/05/30 04:35:26;;;;;;;;;;;19.80;42.10;;;;;;5110559;28;20259;-58
2023/05/30 04:37:55;;;;;;;;;;;19.80;42.10;;;;;;5109005;28;19920;-58
2023/05/30 04:40:22;;;;;;;;;;;19.80;42.10;;;;;;5093582;28;19920;-58
2023/05/30 04:42:51;;;;;;;;;;;19.80;42.20;;;;;;5111081;28;19929;-58
2023/05/30 04:45:18;;;;;;;;;;;19.80;42.10;;;;;;5093180;28;19973;-58
2023/05/30 04:47:45;;;;;;;;;;;19.80;42.20;;;;;;5090651;28;19920;-57
2023/05/30 04:50:14;;;;;;;;;;;19.70;42.10;;;;;;5094461;28;19920;-59
2023/05/30 04:52:41;;;;;;;;;;;19.80;42.20;;;;;;5111096;28;19927;-59
2023/05/30 04:55:09;;;;;;;;;;;19.80;42.20;;;;;;5094209;28;19971;-59
2023/05/30 04:57:37;;;;;;;;;;;19.70;42.10;;;;;;5093630;28;19920;-58
2023/05/30 05:00:09;;;;;;;;;;;19.70;42.20;;;;;;5094752;28;20014;-58
2023/05/30 05:02:38;;;;;;;;;;;19.70;42.20;;;;;;5090631;28;19955;-59
2023/05/30 05:05:05;;;;;;;;;;;19.70;42.20;;;;;;5091332;28;19920;-58
2023/05/30 05:07:32;;;;;;;;;;;19.70;42.20;;;;;;5089382;28;19934;-58
2023/05/30 05:09:59;;;;;;;;;;;19.70;42.20;;;;;;5093723;28;20000;-59
2023/05/30 05:12:27;;;;;;;;;;;19.70;42.20;;;;;;5092716;28;19959;-59
2023/05/30 05:14:54;;;;;;;;;;;19.70;42.20;;;;;;5094015;28;19970;-59
2023/05/30 05:17:21;;;;;;;;;;;19.70;42.20;;;;;;5090575;28;19973;-59
2023/05/30 05:19:47;;;;;;;;;;;19.70;42.30;;;;;;5087556;28;19920;-58
2023/05/30 05:22:14;;;;;;;;;;;19.70;42.20;;;;;;5090915;28;19977;-59
2023/05/30 05:24:41;;;;;;;;;;;19.70;42.20;;;;;;5110907;28;19976;-59
2023/05/30 05:27:08;;;;;;;;;;;19.70;42.30;;;;;;5110618;28;19920;-59
2023/05/30 05:29:36;;;;;;;;;;;19.70;42.30;;;;;;5093748;28;19970;-59
2023/05/30 05:32:03;;;;;;;;;;;19.70;42.20;;;;;;5103643;28;19932;-59
2023/05/30 05:34:29;;;;;;;;;;;19.70;42.30;;;;;;5084587;28;19927;-58
2023/05/30 05:36:56;;;;;;;;;;;19.70;42.40;;;;;;5088585;28;20312;-59
2023/05/30 05:39:23;;;;;;;;;;;19.70;42.40;;;;;;5109960;28;20315;-59
2023/05/30 05:41:50;;;;;;;;;;;19.70;42.40;;;;;;5093230;28;20378;-58
2023/05/30 05:44:16;;;;;;;;;;;19.70;42.40;;;;;;5092297;28;19920;-58
2023/05/30 05:46:45;;;;;;;;;;;19.70;42.40;;;;;;5110421;28;19924;-59
2023/05/30 05:49:11;;;;;;;;;;;19.70;42.50;;;;;;5090870;28;19942;-58
2023/05/30 05:51:38;;;;;;;;;;;19.70;42.50;;;;;;5093185;28;19927;-58
2023/05/30 05:54:05;;;;;;;;;;;19.70;42.50;;;;;;5094183;28;19924;-58
2023/05/30 05:56:32;;;;;;;;;;;19.70;42.50;;;;;;5111556;28;19928;-58
2023/05/30 05:58:58;;;;;;;;;;;19.70;42.50;;;;;;5114494;28;20015;-58
2023/05/30 06:01:25;;;;;;;;;;;19.70;42.50;;;;;;5112172;28;19924;-58
2023/05/30 06:03:53;;;;;;;;;;;19.70;42.50;;;;;;5113716;28;20400;-58
2023/05/30 06:06:20;;;;;;;;;;;19.70;42.60;;;;;;5114075;28;19927;-59
2023/05/30 06:08:47;;;;;;;;;;;19.70;42.60;;;;;;5098160;28;19920;-59
2023/05/30 06:11:14;;;;;;;;;;;19.70;42.50;;;;;;5113761;28;20282;-58
2023/05/30 06:13:41;;;;;;;;;;;19.70;42.50;;;;;;5112130;28;19926;-58
2023/05/30 06:16:08;;;;;;;;;;;19.70;43.10;;;;;;5098155;28;20293;-58
2023/05/30 06:18:34;;;;;;;;;;;19.70;42.50;;;;;;5096597;28;19974;-58
2023/05/30 06:21:04;;;;;;;;;;;19.70;42.50;;;;;;5097788;28;19920;-59
2023/05/30 06:23:31;;;;;;;;;;;19.70;42.60;;;;;;5113481;28;19920;-58
2023/05/30 06:25:57;;;;;;;;;;;19.70;42.50;;;;;;5096903;28;19973;-58
2023/05/30 06:28:24;;;;;;;;;;;19.70;42.50;;;;;;5111666;28;19920;-59
2023/05/30 06:30:51;;;;;;;;;;;19.70;42.50;;;;;;5097769;28;19973;-59
2023/05/30 06:33:18;;;;;;;;;;;19.70;42.40;;;;;;5094645;28;19927;-57
2023/05/30 06:35:44;;;;;;;;;;;19.80;42.40;;;;;;5111604;28;19920;-59
2023/05/30 06:38:13;;;;;;;;;;;19.70;42.30;;;;;;5111977;28;19924;-62
2023/05/30 06:40:40;;;;;;;;;;;19.80;42.40;;;;;;5097095;28;19967;-58
2023/05/30 06:43:07;;;;;;;;;;;19.80;42.50;;;;;;5094798;28;19978;-61
2023/05/30 06:45:34;;;;;;;;;;;19.80;42.40;;;;;;5093296;28;19920;-60
2023/05/30 06:48:01;;;;;;;;;;;19.80;42.40;;;;;;5097688;28;19924;-60
2023/05/30 06:50:27;;;;;;;;;;;19.90;42.50;;;;;;5094712;28;19920;-60
2023/05/30 06:52:54;;;;;;;;;;;19.90;42.60;;;;;;5094522;28;19966;-60
2023/05/30 06:55:22;;;;;;;;;;;19.90;42.60;;;;;;5096891;28;19920;-59
2023/05/30 06:57:54;;;;;;;;;;;20.00;42.70;;;;;;5095630;28;19927;-60
2023/05/30 07:00:21;;;;;;;;;;;20.00;42.80;;;;;;5094691;28;19923;-60
2023/05/30 07:02:48;;;;;;;;;;;20.00;42.80;;;;;;5095941;28;20323;-60
2023/05/30 07:05:15;;;;;;;;;;;20.00;42.70;;;;;;5094506;28;19977;-59
2023/05/30 07:07:42;;;;;;;;;;;20.00;42.80;;;;;;5095514;28;19924;-60
2023/05/30 07:10:10;;;;;;;;;;;20.10;42.90;;;;;;5091831;28;19920;-59
2023/05/30 07:12:38;;;;;;;;;;;20.10;42.80;;;;;;5095479;28;19924;-59
2023/05/30 07:15:06;;;;;;;;;;;20.10;42.80;;;;;;5102725;28;19920;-59
2023/05/30 07:17:33;;;;;;;;;;;20.10;42.70;;;;;;5110835;28;19966;-59
2023/05/30 07:20:00;;;;;;;;;;;20.10;42.70;;;;;;5092947;28;20332;-59
2023/05/30 07:22:26;;;;;;;;;;;20.10;42.70;;;;;;5094327;28;19924;-59
2023/05/30 07:24:53;;;;;;;;;;;20.10;42.80;;;;;;5094234;28;19942;-59
2023/05/30 07:27:20;;;;;;;;;;;20.10;42.70;;;;;;5111416;28;19920;-58
2023/05/30 07:29:48;;;;;;;;;;;20.20;42.80;;;;;;5094655;28;19970;-59
2023/05/30 07:32:15;;;;;;;;;;;20.20;42.80;;;;;;5088594;28;19920;-60
2023/05/30 07:34:42;;;;;;;;;;;20.20;42.80;;;;;;5112946;28;19920;-60
2023/05/30 07:37:08;;;;;;;;;;;20.20;42.80;;;;;;5109933;28;19924;-61
2023/05/30 07:39:36;;;;;;;;;;;20.20;42.80;;;;;;5110373;28;20270;-62
2023/05/30 07:42:03;;;;;;;;;;;20.20;42.80;;;;;;5112781;28;19935;-61
2023/05/30 07:44:29;;;;;;;;;;;20.20;42.70;;;;;;5096490;28;19920;-60
2023/05/30 07:46:58;;;;;;;;;;;20.20;42.70;;;;;;5096177;28;19920;-60
2023/05/30 07:49:25;;;;;;;;;;;20.20;42.70;;;;;;5095890;28;19965;-60
2023/05/30 07:51:51;;;;;;;;;;;20.20;42.70;;;;;;5093564;28;19920;-58
2023/05/30 07:54:18;;;;;;;;;;;20.20;42.60;;;;;;5096547;28;19920;-57
2023/05/30 07:56:45;;;;;;;;;;;20.20;42.60;;;;;;5111342;28;19981;-59
2023/05/30 07:59:12;;;;;;;;;;;20.20;42.60;;;;;;5094445;28;19927;-61
2023/05/30 08:01:38;;;;;;;;;;;20.20;42.60;;;;;;5109074;28;19927;-60
2023/05/30 08:04:06;;;;;;;;;;;20.20;42.60;;;;;;5108590;28;20247;-62
2023/05/30 08:06:35;;;;;;;;;;;20.20;42.70;;;;;;5112565;28;20006;-61
2023/05/30 08:09:02;;;;;;;;;;;20.20;42.70;;;;;;5092716;28;19924;-61
2023/05/30 08:11:28;;;;;;;;;;;20.20;42.70;;;;;;5110076;28;19927;-62
2023/05/30 08:13:55;;;;;;;;;;;20.30;42.80;;;;;;5093164;28;19920;-60
2023/05/30 08:16:23;;;;;;;;;;;20.30;42.80;;;;;;5109461;28;19920;-61
2023/05/30 08:18:51;;;;;;;;;;;20.30;42.70;;;;;;5107666;28;20384;-60
2023/05/30 08:21:19;;;;;;;;;;;20.30;42.70;;;;;;5112032;28;19946;-60
2023/05/30 08:23:46;;;;;;;;;;;20.30;42.80;;;;;;5110916;28;19920;-59
2023/05/30 08:26:13;;;;;;;;;;;20.30;42.70;;;;;;5095285;28;19927;-59
2023/05/30 08:28:40;;;;;;;;;;;20.30;42.70;;;;;;5092141;28;19920;-59
2023/05/30 08:31:08;;;;;;;;;;;20.30;42.70;;;;;;5110002;28;19924;-60
2023/05/30 08:33:36;;;;;;;;;;;20.30;42.80;;;;;;5110939;28;19927;-60
2023/05/30 08:36:03;;;;;;;;;;;20.30;42.70;;;;;;5094109;28;20262;-60
2023/05/30 08:38:31;;;;;;;;;;;20.30;42.70;;;;;;5093052;28;19927;-58
2023/05/30 08:40:58;;;;;;;;;;;20.30;42.70;;;;;;5092120;28;20011;-58
2023/05/30 08:43:24;;;;;;;;;;;20.30;42.70;;;;;;5074408;28;19921;-58
2023/05/30 08:45:51;;;;;;;;;;;20.30;42.70;;;;;;5092933;28;19927;-60
2023/05/30 08:48:18;;;;;;;;;;;20.30;42.70;;;;;;5091534;28;19946;-60
2023/05/30 08:50:45;;;;;;;;;;;20.30;42.80;;;;;;5095158;28;19923;-60
2023/05/30 08:53:13;;;;;;;;;;;20.40;42.90;;;;;;5092346;28;19949;-59
2023/05/30 08:55:43;;;;;;;;;;;20.30;42.70;;;;;;5092860;28;19973;-59
2023/05/30 08:58:10;;;;;;;;;;;20.30;42.70;;;;;;5111154;28;19920;-59
2023/05/30 09:00:37;;;;;;;;;;;20.40;42.80;;;;;;5091362;28;20358;-60
2023/05/30 09:03:05;;;;;;;;;;;20.40;42.80;;;;;;5091388;28;20247;-59
2023/05/30 09:05:34;;;;;;;;;;;20.40;42.90;;;;;;5109668;28;20501;-60
2023/05/30 09:08:00;;;;;;;;;;;20.40;42.90;;;;;;5091823;28;19924;-60
2023/05/30 09:10:27;;;;;;;;;;;20.40;43.00;;;;;;5094043;28;20023;-60
2023/05/30 09:12:55;;;;;;;;;;;20.40;42.90;;;;;;5092810;28;19924;-58
2023/05/30 09:15:22;;;;;;;;;;;20.40;42.90;;;;;;5091384;28;19920;-59
2023/05/30 09:17:49;;;;;;;;;;;20.40;42.90;;;;;;5092511;28;20419;-61
2023/05/30 09:20:17;;;;;;;;;;;20.40;42.90;;;;;;5091390;28;19927;-59
2023/05/30 09:22:43;;;;;;;;;;;20.40;42.90;;;;;;5111057;28;19920;-59
2023/05/30 09:25:12;;;;;;;;;;;20.40;42.90;;;;;;5093672;28;20015;-59
2023/05/30 09:27:39;;;;;;;;;;;20.40;42.90;;;;;;5093946;28;19937;-60
2023/05/30 09:30:11;;;;;;;;;;;20.40;42.90;;;;;;5091037;28;19927;-59
2023/05/30 09:32:38;;;;;;;;;;;20.40;42.90;;;;;;5092409;28;20414;-59
2023/05/30 09:35:05;;;;;;;;;;;20.40;42.90;;;;;;5109973;28;19927;-59
2023/05/30 09:37:35;;;;;;;;;;;20.40;42.90;;;;;;5092991;28;19942;-60
2023/05/30 09:40:09;;;;;;;;;;;20.40;42.80;;;;;;5072140;28;20263;-59
2023/05/30 09:42:40;;;;;;;;;;;20.40;42.90;;;;;;5089820;28;19920;-59
2023/05/30 09:45:07;;;;;;;;;;;20.40;42.90;;;;;;5089396;28;20239;-59
2023/05/30 09:47:37;;;;;;;;;;;20.40;42.90;;;;;;5085202;28;20362;-60
2023/05/30 09:50:05;;;;;;;;;;;20.40;42.90;;;;;;5092492;28;19924;-59
2023/05/30 09:52:32;;;;;;;;;;;20.40;42.90;;;;;;5110089;28;20366;-59
2023/05/30 09:54:59;;;;;;;;;;;20.40;43.00;;;;;;5093273;28;19997;-60
2023/05/30 09:57:27;;;;;;;;;;;20.40;43.00;;;;;;5109670;28;19920;-59
2023/05/30 09:59:54;;;;;;;;;;;20.40;43.00;;;;;;5107792;28;19981;-59
2023/05/30 10:02:22;;;;;;;;;;;20.40;43.00;;;;;;5091781;28;19920;-59
2023/05/30 10:04:51;;;;;;;;;;;20.50;43.00;;;;;;5105071;28;19920;-58
2023/05/30 10:07:18;;;;;;;;;;;20.50;43.10;;;;;;5106949;28;19921;-59
2023/05/30 10:09:45;;;;;;;;;;;20.50;43.10;;;;;;5106141;28;19920;-61
2023/05/30 10:12:12;;;;;;;;;;;20.50;43.10;;;;;;5107821;28;19924;-59
2023/05/30 10:14:39;;;;;;;;;;;20.50;43.00;;;;;;5092649;28;19924;-60
2023/05/30 10:17:06;;;;;;;;;;;20.50;43.10;;;;;;5090460;28;19919;-61
2023/05/30 10:19:40;;;;;;;;;;;20.50;43.10;;;;;;5090558;28;19920;-60
2023/05/30 10:22:09;;;;;;;;;;;20.50;43.00;;;;;;5105906;28;19970;-60
2023/05/30 10:24:35;;;;;;;;;;;20.60;43.20;;;;;;5091221;28;19951;-60
2023/05/30 10:27:03;;;;;;;;;;;20.60;43.20;;;;;;5107808;28;20374;-59
2023/05/30 10:29:31;;;;;;;;;;;20.50;43.10;;;;;;5110065;28;19963;-60
2023/05/30 10:31:58;;;;;;;;;;;20.50;43.00;;;;;;5105508;28;19927;-60
2023/05/30 10:34:33;;;;;;;;;;;20.60;43.10;;;;;;5089862;28;20274;-59
2023/05/30 10:37:00;;;;;;;;;;;20.60;43.10;;;;;;5098522;28;20316;-60
2023/05/30 10:39:31;;;;;;;;;;;20.60;43.00;;;;;;5106375;28;19927;-59
2023/05/30 10:41:59;;;;;;;;;;;20.60;43.00;;;;;;5107993;28;19927;-60
2023/05/30 10:44:32;;;;;;;;;;;20.50;42.90;;;;;;5114246;28;19920;-61
2023/05/30 10:47:04;;;;;;;;;;;20.50;43.00;;;;;;5093210;28;19927;-61
2023/05/30 10:49:31;;;;;;;;;;;20.60;43.10;;;;;;5092235;28;19934;-61
2023/05/30 10:52:01;;;;;;;;;;;20.50;43.50;;;;;;5093324;28;19932;-60
2023/05/30 10:54:31;;;;;;;;;;;20.50;43.00;;;;;;5092258;28;19985;-59
2023/05/30 10:56:58;;;;;;;;;;;20.60;43.10;;;;;;5109653;28;20264;-59
2023/05/30 10:59:24;;;;;;;;;;;20.60;43.10;;;;;;5092337;28;19928;-61
2023/05/30 11:02:01;;;;;;;;;;;20.60;43.10;;;;;;5093290;28;19977;-61
2023/05/30 11:04:32;;;;;;;;;;;20.60;43.10;;;;;;5085950;28;19974;-60
2023/05/30 11:06:59;;;;;;;;;;;20.60;43.10;;;;;;5092760;28;19920;-60
2023/05/30 11:09:26;;;;;;;;;;;20.50;43.10;;;;;;5091960;28;19924;-59
2023/05/30 11:11:57;;;;;;;;;;;20.50;43.10;;;;;;5092908;28;20374;-58
2023/05/30 11:14:27;;;;;;;;;;;20.50;43.10;;;;;;5092757;28;19977;-62
2023/05/30 11:16:56;;;;;;;;;;;20.50;43.20;;;;;;5110461;28;19920;-63
2023/05/30 11:19:25;;;;;;;;;;;20.50;43.20;;;;;;5094115;28;19969;-62
2023/05/30 11:21:55;;;;;;;;;;;20.50;43.20;;;;;;5113244;28;19924;-62
2023/05/30 11:24:22;;;;;;;;;;;20.50;43.30;;;;;;5094045;28;19927;-62
2023/05/30 11:27:00;;;;;;;;;;;20.60;43.40;;;;;;5097102;28;20018;-60
2023/05/30 11:29:35;;;;;;;;;;;20.60;43.40;;;;;;5112635;28;19994;-60
2023/05/30 11:32:02;;;;;;;;;;;20.60;43.40;;;;;;5109587;28;20018;-59
2023/05/30 11:34:29;;;;;;;;;;;20.60;43.50;;;;;;5096487;28;19920;-59
2023/05/30 11:36:56;;;;;;;;;;;20.60;43.50;;;;;;5095521;28;19920;-59
2023/05/30 11:39:23;;;;;;;;;;;20.60;43.50;;;;;;5096364;28;19919;-60
2023/05/30 11:41:49;;;;;;;;;;;20.60;43.50;;;;;;5112735;28;19920;-60
2023/05/30 11:44:18;;;;;;;;;;;20.70;43.60;;;;;;5112130;28;19920;-59
2023/05/30 11:46:45;;;;;;;;;;;20.60;43.50;;;;;;5095059;28;19919;-61
2023/05/30 11:49:11;;;;;;;;;;;20.70;43.60;;;;;;5095695;28;19920;-60
2023/05/30 11:51:38;;;;;;;;;;;20.70;43.60;;;;;;5096585;28;19928;-59
2023/05/30 11:54:06;;;;;;;;;;;20.70;43.60;;;;;;5095147;28;19920;-62
2023/05/30 11:56:33;;;;;;;;;;;20.70;43.60;;;;;;5113365;28;19930;-62
2023/05/30 11:59:00;;;;;;;;;;;20.70;43.60;;;;;;5112072;28;20393;-61
2023/05/30 12:01:28;;;;;;;;;;;20.70;43.60;;;;;;5112244;28;19920;-61
2023/05/30 12:03:56;;;;;;;;;;;20.70;43.60;;;;;;5095180;28;19929;-61
2023/05/30 12:06:24;;;;;;;;;;;20.70;43.50;;;;;;5113102;28;20022;-59
2023/05/30 12:08:51;;;;;;;;;;;20.70;43.50;;;;;;5093294;28;19927;-61
2023/05/30 12:11:18;;;;;;;;;;;20.70;43.40;;;;;;5112036;28;19924;-61
2023/05/30 12:13:45;;;;;;;;;;;20.70;43.50;;;;;;5092730;28;19924;-60
2023/05/30 12:16:12;;;;;;;;;;;20.70;43.40;;;;;;5091679;28;19924;-61
2023/05/30 12:18:40;;;;;;;;;;;20.70;43.50;;;;;;5094866;28;19969;-61
2023/05/30 12:21:08;;;;;;;;;;;20.70;43.50;;;;;;5093388;28;20359;-62
2023/05/30 12:23:34;;;;;;;;;;;20.70;43.50;;;;;;5095587;28;19920;-62
2023/05/30 12:26:02;;;;;;;;;;;20.70;43.40;;;;;;5093888;28;19928;-59
2023/05/30 12:28:29;;;;;;;;;;;20.70;43.40;;;;;;5110762;28;20268;-58
2023/05/30 12:30:55;;;;;;;;;;;20.70;43.40;;;;;;5112758;28;19920;-60
2023/05/30 12:33:23;;;;;;;;;;;20.70;43.40;;;;;;5108538;28;19924;-60
2023/05/30 12:35:53;;;;;;;;;;;20.70;43.40;;;;;;5097182;28;19920;-61
2023/05/30 12:38:20;;;;;;;;;;;20.70;43.40;;;;;;5095130;28;20384;-60
2023/05/30 12:40:47;;;;;;;;;;;20.70;43.40;;;;;;5112162;28;19966;-60
2023/05/30 12:43:14;;;;;;;;;;;20.70;43.40;;;;;;5095985;28;19920;-60
2023/05/30 12:45:43;;;;;;;;;;;20.70;43.40;;;;;;5111160;28;19934;-61
2023/05/30 12:48:10;;;;;;;;;;;20.70;44.00;;;;;;5096702;28;19973;-60
2023/05/30 12:50:37;;;;;;;;;;;20.70;43.40;;;;;;5111594;28;19924;-60
2023/05/30 12:53:05;;;;;;;;;;;20.80;43.50;;;;;;5112223;28;19920;-59
2023/05/30 12:55:32;;;;;;;;;;;20.70;43.40;;;;;;5096459;28;19924;-61
2023/05/30 12:57:59;;;;;;;;;;;20.80;43.50;;;;;;5092877;28;19946;-61
2023/05/30 13:00:27;;;;;;;;;;;20.80;43.50;;;;;;5092984;28;20261;-59
2023/05/30 13:02:54;;;;;;;;;;;20.80;43.50;;;;;;5092868;28;20374;-60
2023/05/30 13:05:21;;;;;;;;;;;20.70;43.40;;;;;;5096351;28;19926;-61
2023/05/30 13:07:48;;;;;;;;;;;20.80;43.50;;;;;;5110422;28;20007;-61
2023/05/30 13:10:16;;;;;;;;;;;20.80;43.50;;;;;;5107335;28;19920;-61
2023/05/30 13:12:43;;;;;;;;;;;20.80;43.50;;;;;;5093220;28;19969;-60
2023/05/30 13:15:11;;;;;;;;;;;20.80;43.50;;;;;;5084833;28;20434;-60
2023/05/30 13:17:37;;;;;;;;;;;20.80;43.50;;;;;;5095459;28;19920;-60
2023/05/30 13:20:06;;;;;;;;;;;20.80;43.50;;;;;;5108856;28;19920;-62
2023/05/30 13:22:33;;;;;;;;;;;20.80;43.50;;;;;;5094913;28;19939;-62
2023/05/30 13:25:00;;;;;;;;;;;20.80;43.50;;;;;;5093347;28;19988;-62
2023/05/30 13:27:29;;;;;;;;;;;20.80;43.50;;;;;;5109814;28;19920;-62
2023/05/30 13:29:56;;;;;;;;;;;20.80;43.50;;;;;;5111119;28;20280;-62
2023/05/30 13:32:23;;;;;;;;;;;20.80;43.50;;;;;;5093429;28;19923;-58
2023/05/30 13:34:50;;;;;;;;;;;20.80;43.50;;;;;;5092778;28;19973;-60
2023/05/30 13:37:17;;;;;;;;;;;20.80;43.50;;;;;;5093606;28;19920;-61
2023/05/30 13:39:45;;;;;;;;;;;20.90;43.50;;;;;;5092022;28;19974;-61
2023/05/30 13:42:11;;;;;;;;;;;20.80;43.50;;;;;;5108540;28;19969;-61
2023/05/30 13:44:40;;;;;;;;;;;20.80;43.50;;;;;;5109206;28;19969;-58
2023/05/30 13:47:07;;;;;;;;;;;20.90;43.50;;;;;;5108944;28;19920;-60
2023/05/30 13:49:37;;;;;;;;;;;20.90;43.50;;;;;;5108759;28;20362;-59
2023/05/30 13:52:03;;;;;;;;;;;20.90;43.50;;;;;;5108381;28;19963;-58
2023/05/30 13:54:30;;;;;;;;;;;20.80;43.40;;;;;;5108552;28;20019;-59
2023/05/30 13:56:57;;;;;;;;;;;20.90;43.20;;;;;;5108244;28;19920;-59
2023/05/30 13:59:24;;;;;;;;;;;20.80;43.10;;;;;;5109538;28;19942;-61
2023/05/30 14:01:52;;;;;;;;;;;20.80;43.70;;;;;;5092965;28;19920;-60
2023/05/30 14:04:19;;;;;;;;;;;20.70;42.90;;;;;;5093983;28;19920;-60
2023/05/30 14:06:50;;;;;;;;;;;20.70;42.90;;;;;;5093664;28;19926;-58
2023/05/30 14:09:19;;;;;;;;;;;20.60;42.80;;;;;;5090510;28;19966;-60
2023/05/30 14:11:46;;;;;;;;;;;20.60;42.80;;;;;;5094302;28;20019;-59
2023/05/30 14:14:13;;;;;;;;;;;20.50;42.80;;;;;;5108105;28;19924;-60
2023/05/30 14:16:40;;;;;;;;;;;20.50;42.90;;;;;;5090134;28;19920;-56
2023/05/30 14:19:11;;;;;;;;;;;20.40;42.90;;;;;;5114173;28;20310;-56